sensor_id;sensor_type;location;lat;lon;timestamp;pressure;altitude;pressure_sealevel;temperature;humidity
37792;BME280;29527;55.766;37.570;2022-08-16T00:02:06;100418.63;;;22.94;41.54
37792;BME280;29527;55.766;37.570;2022-08-16T00:04:32;100411.81;;;22.90;41.79
37792;BME280;29527;55.766;37.570;2022-08-16T00:06:57;100410.81;;;22.91;41.73
37792;BME280;29527;55.766;37.570;2022-08-16T00:09:23;100422.28;;;23.01;41.45
37792;BME280;29527;55.766;37.570;2022-08-16T00:11:49;100422.66;;;22.98;41.53
37792;BME280;29527;55.766;37.570;2022-08-16T00:14:21;100426.22;;;22.99;41.34
37792;BME280;29527;55.766;37.570;2022-08-16T00:16:47;100425.66;;;23.03;41.20
37792;BME280;29527;55.766;37.570;2022-08-16T00:19:20;100425.66;;;23.03;41.21
37792;BME280;29527;55.766;37.570;2022-08-16T00:21:46;100420.03;;;23.05;41.28
37792;BME280;29527;55.766;37.570;2022-08-16T00:24:12;100423.06;;;22.95;41.58
37792;BME280;29527;55.766;37.570;2022-08-16T00:26:40;100426.44;;;22.97;41.43
37792;BME280;29527;55.766;37.570;2022-08-16T00:29:06;100419.66;;;22.93;41.52
37792;BME280;29527;55.766;37.570;2022-08-16T00:31:33;100426.44;;;22.97;41.71
37792;BME280;29527;55.766;37.570;2022-08-16T00:33:59;100420.75;;;22.99;41.33
37792;BME280;29527;55.766;37.570;2022-08-16T00:36:24;100415.91;;;22.94;41.53
37792;BME280;29527;55.766;37.570;2022-08-16T00:38:50;100419.28;;;22.96;41.47
37792;BME280;29527;55.766;37.570;2022-08-16T00:41:16;100412.50;;;22.92;41.46
37792;BME280;29527;55.766;37.570;2022-08-16T00:43:42;100422.19;;;22.94;41.57
37792;BME280;29527;55.766;37.570;2022-08-16T00:46:14;100419.94;;;22.98;41.36
37792;BME280;29527;55.766;37.570;2022-08-16T00:48:43;100423.44;;;22.92;41.40
37792;BME280;29527;55.766;37.570;2022-08-16T00:51:10;100421.00;;;22.82;41.73
37792;BME280;29527;55.766;37.570;2022-08-16T00:53:36;100394.47;;;22.61;41.98
37792;BME280;29527;55.766;37.570;2022-08-16T00:56:11;100424.19;;;22.86;41.86
37792;BME280;29527;55.766;37.570;2022-08-16T00:58:45;100428.72;;;22.78;41.95
37792;BME280;29527;55.766;37.570;2022-08-16T01:01:11;100422.22;;;22.64;42.17
37792;BME280;29527;55.766;37.570;2022-08-16T01:03:40;100426.66;;;22.65;42.39
37792;BME280;29527;55.766;37.570;2022-08-16T01:06:08;100416.66;;;22.58;42.62
37792;BME280;29527;55.766;37.570;2022-08-16T01:08:35;100426.81;;;22.64;42.59
37792;BME280;29527;55.766;37.570;2022-08-16T01:11:03;100428.63;;;22.57;42.91
37792;BME280;29527;55.766;37.570;2022-08-16T01:13:31;100436.81;;;22.57;42.94
37792;BME280;29527;55.766;37.570;2022-08-16T01:16:02;100434.28;;;22.55;43.13
37792;BME280;29527;55.766;37.570;2022-08-16T01:18:32;100433.59;;;22.53;42.54
37792;BME280;29527;55.766;37.570;2022-08-16T01:21:10;100433.03;;;22.58;42.88
37792;BME280;29527;55.766;37.570;2022-08-16T01:23:55;100439.91;;;22.69;42.40
37792;BME280;29527;55.766;37.570;2022-08-16T01:26:27;100435.88;;;22.49;42.96
37792;BME280;29527;55.766;37.570;2022-08-16T01:28:56;100435.91;;;22.41;43.37
37792;BME280;29527;55.766;37.570;2022-08-16T01:31:23;100440.72;;;22.39;43.52
37792;BME280;29527;55.766;37.570;2022-08-16T01:33:49;100433.94;;;22.35;43.30
37792;BME280;29527;55.766;37.570;2022-08-16T01:36:15;100440.63;;;22.32;43.82
37792;BME280;29527;55.766;37.570;2022-08-16T01:38:43;100445.78;;;22.42;43.35
37792;BME280;29527;55.766;37.570;2022-08-16T01:41:13;100436.50;;;22.36;43.72
37792;BME280;29527;55.766;37.570;2022-08-16T01:43:41;100437.53;;;22.35;43.84
37792;BME280;29527;55.766;37.570;2022-08-16T01:46:19;100450.41;;;22.42;43.25
37792;BME280;29527;55.766;37.570;2022-08-16T01:48:45;100442.88;;;22.29;43.74
37792;BME280;29527;55.766;37.570;2022-08-16T01:51:13;100442.75;;;22.22;43.77
37792;BME280;29527;55.766;37.570;2022-08-16T01:53:41;100437.50;;;22.20;43.84
37792;BME280;29527;55.766;37.570;2022-08-16T01:56:07;100447.28;;;22.15;43.89
37792;BME280;29527;55.766;37.570;2022-08-16T01:58:32;100446.72;;;22.19;43.98
37792;BME280;29527;55.766;37.570;2022-08-16T02:00:57;100438.44;;;22.13;44.36
37792;BME280;29527;55.766;37.570;2022-08-16T02:03:23;100443.59;;;22.07;44.22
37792;BME280;29527;55.766;37.570;2022-08-16T02:05:49;100445.19;;;22.02;44.43
37792;BME280;29527;55.766;37.570;2022-08-16T02:08:14;100440.09;;;21.99;44.62
37792;BME280;29527;55.766;37.570;2022-08-16T02:10:40;100443.22;;;22.11;44.34
37792;BME280;29527;55.766;37.570;2022-08-16T02:13:06;100447.38;;;22.06;44.30
37792;BME280;29527;55.766;37.570;2022-08-16T02:15:33;100451.94;;;22.06;44.25
37792;BME280;29527;55.766;37.570;2022-08-16T02:18:00;100441.03;;;22.06;44.20
37792;BME280;29527;55.766;37.570;2022-08-16T02:20:28;100452.81;;;22.06;44.18
37792;BME280;29527;55.766;37.570;2022-08-16T02:22:56;100451.28;;;22.04;44.28
37792;BME280;29527;55.766;37.570;2022-08-16T02:25:22;100453.66;;;22.07;44.33
37792;BME280;29527;55.766;37.570;2022-08-16T02:27:49;100448.94;;;22.01;44.66
37792;BME280;29527;55.766;37.570;2022-08-16T02:30:19;100454.13;;;22.11;44.10
37792;BME280;29527;55.766;37.570;2022-08-16T02:32:45;100443.47;;;22.01;44.37
37792;BME280;29527;55.766;37.570;2022-08-16T02:35:11;100447.00;;;22.10;44.28
37792;BME280;29527;55.766;37.570;2022-08-16T02:37:37;100451.00;;;21.99;44.56
37792;BME280;29527;55.766;37.570;2022-08-16T02:40:04;100457.00;;;21.94;44.66
37792;BME280;29527;55.766;37.570;2022-08-16T02:42:30;100447.13;;;21.93;44.65
37792;BME280;29527;55.766;37.570;2022-08-16T02:44:55;100452.31;;;22.03;44.68
37792;BME280;29527;55.766;37.570;2022-08-16T02:47:21;100457.66;;;21.96;44.73
37792;BME280;29527;55.766;37.570;2022-08-16T02:49:48;100455.47;;;21.91;44.72
37792;BME280;29527;55.766;37.570;2022-08-16T02:52:14;100451.16;;;21.97;44.68
37792;BME280;29527;55.766;37.570;2022-08-16T02:54:40;100458.84;;;21.93;44.80
37792;BME280;29527;55.766;37.570;2022-08-16T02:57:06;100451.28;;;22.04;44.63
37792;BME280;29527;55.766;37.570;2022-08-16T02:59:31;100448.44;;;21.97;44.83
37792;BME280;29527;55.766;37.570;2022-08-16T03:01:57;100450.69;;;21.93;44.89
37792;BME280;29527;55.766;37.570;2022-08-16T03:04:23;100444.94;;;21.88;44.50
37792;BME280;29527;55.766;37.570;2022-08-16T03:06:49;100464.81;;;21.97;44.64
37792;BME280;29527;55.766;37.570;2022-08-16T03:09:16;100464.31;;;21.93;44.74
37792;BME280;29527;55.766;37.570;2022-08-16T03:11:42;100466.38;;;21.91;44.94
37792;BME280;29527;55.766;37.570;2022-08-16T03:14:10;100461.88;;;21.84;45.02
37792;BME280;29527;55.766;37.570;2022-08-16T03:16:35;100465.06;;;21.87;45.12
37792;BME280;29527;55.766;37.570;2022-08-16T03:19:01;100467.41;;;21.90;44.88
37792;BME280;29527;55.766;37.570;2022-08-16T03:21:26;100465.34;;;21.92;44.88
37792;BME280;29527;55.766;37.570;2022-08-16T03:23:53;100465.66;;;21.98;44.94
37792;BME280;29527;55.766;37.570;2022-08-16T03:26:18;100466.63;;;22.05;44.52
37792;BME280;29527;55.766;37.570;2022-08-16T03:28:44;100451.38;;;21.96;44.85
37792;BME280;29527;55.766;37.570;2022-08-16T03:31:09;100471.69;;;22.08;44.70
37792;BME280;29527;55.766;37.570;2022-08-16T03:33:35;100480.66;;;22.17;44.45
37792;BME280;29527;55.766;37.570;2022-08-16T03:36:01;100479.38;;;22.28;44.46
37792;BME280;29527;55.766;37.570;2022-08-16T03:38:29;100479.22;;;22.44;43.90
37792;BME280;29527;55.766;37.570;2022-08-16T03:40:55;100468.63;;;22.49;43.70
37792;BME280;29527;55.766;37.570;2022-08-16T03:43:21;100463.44;;;22.55;43.51
37792;BME280;29527;55.766;37.570;2022-08-16T03:45:52;100475.50;;;22.75;43.45
37792;BME280;29527;55.766;37.570;2022-08-16T03:48:25;100476.31;;;23.21;42.58
37792;BME280;29527;55.766;37.570;2022-08-16T03:50:50;100473.22;;;24.33;39.99
37792;BME280;29527;55.766;37.570;2022-08-16T03:53:16;100461.69;;;25.84;36.72
37792;BME280;29527;55.766;37.570;2022-08-16T03:55:41;100456.06;;;27.12;34.10
37792;BME280;29527;55.766;37.570;2022-08-16T03:58:07;100459.50;;;28.35;32.07
37792;BME280;29527;55.766;37.570;2022-08-16T04:00:32;100455.16;;;29.51;30.05
37792;BME280;29527;55.766;37.570;2022-08-16T04:03:00;100466.25;;;30.54;28.51
37792;BME280;29527;55.766;37.570;2022-08-16T04:05:32;100451.63;;;31.64;26.91
37792;BME280;29527;55.766;37.570;2022-08-16T04:07:58;100454.66;;;32.31;25.37
37792;BME280;29527;55.766;37.570;2022-08-16T04:10:23;100458.47;;;33.03;24.65
37792;BME280;29527;55.766;37.570;2022-08-16T04:12:48;100455.97;;;33.52;23.99
37792;BME280;29527;55.766;37.570;2022-08-16T04:15:15;100460.50;;;33.90;23.37
37792;BME280;29527;55.766;37.570;2022-08-16T04:17:42;100455.31;;;34.37;22.69
37792;BME280;29527;55.766;37.570;2022-08-16T04:20:09;100461.50;;;35.03;22.14
37792;BME280;29527;55.766;37.570;2022-08-16T04:22:35;100456.66;;;35.52;21.16
37792;BME280;29527;55.766;37.570;2022-08-16T04:25:03;100464.19;;;35.87;20.46
37792;BME280;29527;55.766;37.570;2022-08-16T04:27:28;100459.44;;;36.40;20.00
37792;BME280;29527;55.766;37.570;2022-08-16T04:29:54;100456.31;;;36.67;20.01
37792;BME280;29527;55.766;37.570;2022-08-16T04:32:19;100468.75;;;37.06;19.15
37792;BME280;29527;55.766;37.570;2022-08-16T04:34:46;100462.28;;;37.11;18.96
37792;BME280;29527;55.766;37.570;2022-08-16T04:37:11;100482.97;;;36.99;19.21
37792;BME280;29527;55.766;37.570;2022-08-16T04:39:38;100480.16;;;37.15;19.11
37792;BME280;29527;55.766;37.570;2022-08-16T04:42:04;100475.38;;;37.15;18.58
37792;BME280;29527;55.766;37.570;2022-08-16T04:44:30;100472.81;;;37.69;18.55
37792;BME280;29527;55.766;37.570;2022-08-16T04:46:57;100448.00;;;38.02;17.69
37792;BME280;29527;55.766;37.570;2022-08-16T04:49:23;100466.59;;;38.47;17.55
37792;BME280;29527;55.766;37.570;2022-08-16T04:51:48;100466.53;;;39.20;16.82
37792;BME280;29527;55.766;37.570;2022-08-16T04:54:14;100476.81;;;39.63;16.45
37792;BME280;29527;55.766;37.570;2022-08-16T04:56:40;100468.69;;;40.00;15.97
37792;BME280;29527;55.766;37.570;2022-08-16T04:59:06;100474.72;;;40.82;15.20
37792;BME280;29527;55.766;37.570;2022-08-16T05:01:34;100481.69;;;40.85;15.00
37792;BME280;29527;55.766;37.570;2022-08-16T05:03:59;100469.50;;;41.17;14.31
37792;BME280;29527;55.766;37.570;2022-08-16T05:06:25;100473.38;;;41.44;14.29
37792;BME280;29527;55.766;37.570;2022-08-16T05:08:51;100479.81;;;42.04;13.79
37792;BME280;29527;55.766;37.570;2022-08-16T05:11:17;100481.22;;;41.93;13.77
37792;BME280;29527;55.766;37.570;2022-08-16T05:13:46;100488.69;;;41.98;13.91
37792;BME280;29527;55.766;37.570;2022-08-16T05:16:17;100493.41;;;42.11;13.41
37792;BME280;29527;55.766;37.570;2022-08-16T05:18:44;100473.78;;;42.52;13.44
37792;BME280;29527;55.766;37.570;2022-08-16T05:21:10;100472.81;;;43.14;12.86
37792;BME280;29527;55.766;37.570;2022-08-16T05:23:35;100464.06;;;43.34;12.62
37792;BME280;29527;55.766;37.570;2022-08-16T05:26:01;100467.69;;;43.60;12.26
37792;BME280;29527;55.766;37.570;2022-08-16T05:28:27;100474.84;;;44.32;12.02
37792;BME280;29527;55.766;37.570;2022-08-16T05:30:52;100477.25;;;45.20;11.40
37792;BME280;29527;55.766;37.570;2022-08-16T05:33:18;100466.63;;;45.93;10.74
37792;BME280;29527;55.766;37.570;2022-08-16T05:35:46;100477.59;;;46.66;10.32
37792;BME280;29527;55.766;37.570;2022-08-16T05:38:13;100477.81;;;47.51;9.73
37792;BME280;29527;55.766;37.570;2022-08-16T05:40:38;100472.22;;;48.28;9.08
37792;BME280;29527;55.766;37.570;2022-08-16T05:43:04;100468.25;;;48.65;8.51
37792;BME280;29527;55.766;37.570;2022-08-16T05:45:29;100464.88;;;48.59;8.53
37792;BME280;29527;55.766;37.570;2022-08-16T05:47:55;100468.63;;;48.31;9.01
37792;BME280;29527;55.766;37.570;2022-08-16T05:50:21;100467.63;;;48.07;9.02
37792;BME280;29527;55.766;37.570;2022-08-16T05:52:46;100468.84;;;47.94;8.96
37792;BME280;29527;55.766;37.570;2022-08-16T05:55:12;100473.59;;;47.61;9.49
37792;BME280;29527;55.766;37.570;2022-08-16T05:57:37;100468.22;;;47.15;9.46
37792;BME280;29527;55.766;37.570;2022-08-16T06:00:08;100475.09;;;46.77;10.04
37792;BME280;29527;55.766;37.570;2022-08-16T06:02:36;100467.03;;;47.16;9.84
37792;BME280;29527;55.766;37.570;2022-08-16T06:05:03;100463.50;;;48.05;9.34
37792;BME280;29527;55.766;37.570;2022-08-16T06:07:29;100450.91;;;48.86;8.83
37792;BME280;29527;55.766;37.570;2022-08-16T06:09:54;100460.75;;;49.08;8.63
37792;BME280;29527;55.766;37.570;2022-08-16T06:12:22;100470.13;;;48.41;9.05
37792;BME280;29527;55.766;37.570;2022-08-16T06:14:48;100462.66;;;48.68;8.76
37792;BME280;29527;55.766;37.570;2022-08-16T06:17:13;100458.75;;;49.28;8.19
37792;BME280;29527;55.766;37.570;2022-08-16T06:19:41;100478.25;;;49.50;8.41
37792;BME280;29527;55.766;37.570;2022-08-16T06:22:07;100452.03;;;49.80;7.79
37792;BME280;29527;55.766;37.570;2022-08-16T06:24:33;100478.16;;;49.85;7.64
37792;BME280;29527;55.766;37.570;2022-08-16T06:26:59;100464.72;;;48.52;8.55
37792;BME280;29527;55.766;37.570;2022-08-16T06:29:24;100457.72;;;48.33;8.26
37792;BME280;29527;55.766;37.570;2022-08-16T06:31:50;100461.13;;;48.39;8.49
37792;BME280;29527;55.766;37.570;2022-08-16T06:34:16;100469.47;;;48.48;8.65
37792;BME280;29527;55.766;37.570;2022-08-16T06:36:42;100471.25;;;48.88;8.43
37792;BME280;29527;55.766;37.570;2022-08-16T06:39:07;100456.72;;;49.29;8.14
37792;BME280;29527;55.766;37.570;2022-08-16T06:41:33;100468.53;;;49.70;7.59
37792;BME280;29527;55.766;37.570;2022-08-16T06:43:58;100451.81;;;49.89;7.61
37792;BME280;29527;55.766;37.570;2022-08-16T06:46:31;100469.25;;;50.57;7.59
37792;BME280;29527;55.766;37.570;2022-08-16T06:49:02;100463.38;;;52.55;6.96
37792;BME280;29527;55.766;37.570;2022-08-16T06:51:27;100468.31;;;52.54;6.15
37792;BME280;29527;55.766;37.570;2022-08-16T06:53:53;100462.16;;;53.27;6.05
37792;BME280;29527;55.766;37.570;2022-08-16T06:56:18;100463.63;;;54.05;5.60
37792;BME280;29527;55.766;37.570;2022-08-16T06:58:44;100489.81;;;54.29;4.96
37792;BME280;29527;55.766;37.570;2022-08-16T07:01:09;100450.50;;;54.19;4.61
37792;BME280;29527;55.766;37.570;2022-08-16T07:03:35;100465.19;;;54.64;4.79
37792;BME280;29527;55.766;37.570;2022-08-16T07:06:01;100448.41;;;54.81;4.72
37792;BME280;29527;55.766;37.570;2022-08-16T07:08:26;100449.00;;;55.32;4.38
37792;BME280;29527;55.766;37.570;2022-08-16T07:10:52;100455.78;;;55.64;4.51
37792;BME280;29527;55.766;37.570;2022-08-16T07:13:18;100449.38;;;55.42;4.43
37792;BME280;29527;55.766;37.570;2022-08-16T07:15:45;100449.22;;;55.67;4.08
37792;BME280;29527;55.766;37.570;2022-08-16T07:18:10;100453.47;;;55.44;4.48
37792;BME280;29527;55.766;37.570;2022-08-16T07:20:37;100454.84;;;55.14;4.47
37792;BME280;29527;55.766;37.570;2022-08-16T07:23:03;100451.25;;;54.81;3.80
37792;BME280;29527;55.766;37.570;2022-08-16T07:25:31;100452.16;;;54.05;4.42
37792;BME280;29527;55.766;37.570;2022-08-16T07:27:57;100456.13;;;53.53;4.72
37792;BME280;29527;55.766;37.570;2022-08-16T07:30:23;100473.41;;;53.93;4.63
37792;BME280;29527;55.766;37.570;2022-08-16T07:32:49;100455.81;;;54.24;4.97
37792;BME280;29527;55.766;37.570;2022-08-16T07:35:17;100434.16;;;54.30;4.60
37792;BME280;29527;55.766;37.570;2022-08-16T07:37:43;100462.38;;;53.85;5.23
37792;BME280;29527;55.766;37.570;2022-08-16T07:40:09;100446.00;;;53.81;4.94
37792;BME280;29527;55.766;37.570;2022-08-16T07:42:36;100448.75;;;54.90;4.62
37792;BME280;29527;55.766;37.570;2022-08-16T07:45:05;100469.31;;;55.71;4.50
37792;BME280;29527;55.766;37.570;2022-08-16T07:47:31;100457.41;;;55.72;3.97
37792;BME280;29527;55.766;37.570;2022-08-16T07:49:56;100449.03;;;55.29;4.27
37792;BME280;29527;55.766;37.570;2022-08-16T07:52:22;100452.72;;;55.36;4.63
37792;BME280;29527;55.766;37.570;2022-08-16T07:54:48;100452.56;;;54.44;4.93
37792;BME280;29527;55.766;37.570;2022-08-16T07:57:13;100443.13;;;53.85;5.37
37792;BME280;29527;55.766;37.570;2022-08-16T07:59:39;100435.72;;;53.66;5.36
37792;BME280;29527;55.766;37.570;2022-08-16T08:02:05;100447.06;;;53.30;5.39
37792;BME280;29527;55.766;37.570;2022-08-16T08:04:30;100465.53;;;51.75;6.27
37792;BME280;29527;55.766;37.570;2022-08-16T08:06:58;100434.59;;;50.78;6.29
37792;BME280;29527;55.766;37.570;2022-08-16T08:09:24;100452.78;;;50.20;7.00
37792;BME280;29527;55.766;37.570;2022-08-16T08:11:49;100424.00;;;49.39;7.33
37792;BME280;29527;55.766;37.570;2022-08-16T08:14:15;100433.22;;;48.41;7.48
37792;BME280;29527;55.766;37.570;2022-08-16T08:16:41;100436.75;;;46.17;9.44
37792;BME280;29527;55.766;37.570;2022-08-16T08:19:08;100438.50;;;43.56;10.87
37792;BME280;29527;55.766;37.570;2022-08-16T08:21:38;100451.06;;;41.11;13.17
37792;BME280;29527;55.766;37.570;2022-08-16T08:24:07;100436.47;;;39.07;14.56
37792;BME280;29527;55.766;37.570;2022-08-16T08:26:34;100442.47;;;37.57;16.20
37792;BME280;29527;55.766;37.570;2022-08-16T08:29:00;100424.00;;;36.45;17.79
37792;BME280;29527;55.766;37.570;2022-08-16T08:31:26;100425.19;;;35.46;18.81
37792;BME280;29527;55.766;37.570;2022-08-16T08:33:51;100441.00;;;34.56;19.45
37792;BME280;29527;55.766;37.570;2022-08-16T08:36:26;100434.00;;;34.10;20.31
37792;BME280;29527;55.766;37.570;2022-08-16T08:38:53;100450.78;;;33.60;20.88
37792;BME280;29527;55.766;37.570;2022-08-16T08:41:18;100438.88;;;32.88;21.57
37792;BME280;29527;55.766;37.570;2022-08-16T08:43:44;100431.38;;;32.44;21.85
37792;BME280;29527;55.766;37.570;2022-08-16T08:46:10;100435.13;;;32.20;22.62
37792;BME280;29527;55.766;37.570;2022-08-16T08:48:35;100416.97;;;31.90;22.99
37792;BME280;29527;55.766;37.570;2022-08-16T08:51:03;100440.91;;;31.68;23.27
37792;BME280;29527;55.766;37.570;2022-08-16T08:53:29;100416.59;;;31.70;23.39
37792;BME280;29527;55.766;37.570;2022-08-16T08:55:54;100442.91;;;31.84;23.51
37792;BME280;29527;55.766;37.570;2022-08-16T08:58:19;100432.41;;;31.86;23.35
37792;BME280;29527;55.766;37.570;2022-08-16T09:00:45;100427.84;;;31.80;23.65
37792;BME280;29527;55.766;37.570;2022-08-16T09:03:11;100424.09;;;31.86;23.71
37792;BME280;29527;55.766;37.570;2022-08-16T09:05:40;100433.56;;;31.90;23.64
37792;BME280;29527;55.766;37.570;2022-08-16T09:08:06;100426.59;;;31.88;24.20
37792;BME280;29527;55.766;37.570;2022-08-16T09:10:32;100424.84;;;31.82;23.54
37792;BME280;29527;55.766;37.570;2022-08-16T09:12:58;100431.13;;;31.77;23.72
37792;BME280;29527;55.766;37.570;2022-08-16T09:15:24;100432.63;;;31.85;23.92
37792;BME280;29527;55.766;37.570;2022-08-16T09:17:51;100402.09;;;31.97;23.38
37792;BME280;29527;55.766;37.570;2022-08-16T09:20:20;100426.81;;;32.20;23.44
37792;BME280;29527;55.766;37.570;2022-08-16T09:22:45;100428.06;;;32.30;23.21
37792;BME280;29527;55.766;37.570;2022-08-16T09:25:11;100424.47;;;32.29;23.48
37792;BME280;29527;55.766;37.570;2022-08-16T09:27:38;100418.19;;;32.17;23.71
37792;BME280;29527;55.766;37.570;2022-08-16T09:30:05;100444.41;;;32.09;23.63
37792;BME280;29527;55.766;37.570;2022-08-16T09:32:30;100424.19;;;31.91;23.89
37792;BME280;29527;55.766;37.570;2022-08-16T09:34:57;100429.09;;;31.72;24.32
37792;BME280;29527;55.766;37.570;2022-08-16T09:37:23;100405.38;;;31.76;23.82
37792;BME280;29527;55.766;37.570;2022-08-16T09:39:48;100428.47;;;31.70;24.58
37792;BME280;29527;55.766;37.570;2022-08-16T09:42:14;100401.81;;;31.47;24.73
37792;BME280;29527;55.766;37.570;2022-08-16T09:44:40;100426.09;;;31.28;24.92
37792;BME280;29527;55.766;37.570;2022-08-16T09:47:06;100431.41;;;31.05;25.34
37792;BME280;29527;55.766;37.570;2022-08-16T09:49:31;100411.66;;;30.85;25.73
37792;BME280;29527;55.766;37.570;2022-08-16T09:51:57;100399.72;;;30.96;25.12
37792;BME280;29527;55.766;37.570;2022-08-16T09:54:25;100405.56;;;31.12;25.17
37792;BME280;29527;55.766;37.570;2022-08-16T09:56:51;100407.69;;;31.21;24.81
37792;BME280;29527;55.766;37.570;2022-08-16T09:59:17;100416.06;;;31.39;24.79
37792;BME280;29527;55.766;37.570;2022-08-16T10:01:43;100399.69;;;31.37;24.44
37792;BME280;29527;55.766;37.570;2022-08-16T10:04:13;100406.16;;;31.14;25.10
37792;BME280;29527;55.766;37.570;2022-08-16T10:06:38;100397.75;;;31.08;25.05
37792;BME280;29527;55.766;37.570;2022-08-16T10:09:06;100405.56;;;31.12;24.88
37792;BME280;29527;55.766;37.570;2022-08-16T10:11:35;100418.53;;;31.23;24.58
37792;BME280;29527;55.766;37.570;2022-08-16T10:14:20;100408.38;;;31.00;24.74
37792;BME280;29527;55.766;37.570;2022-08-16T10:16:46;100406.16;;;30.73;24.69
37792;BME280;29527;55.766;37.570;2022-08-16T10:19:13;100414.00;;;30.52;24.94
37792;BME280;29527;55.766;37.570;2022-08-16T10:21:39;100409.22;;;30.35;25.44
37792;BME280;29527;55.766;37.570;2022-08-16T10:24:06;100400.69;;;30.13;26.29
37792;BME280;29527;55.766;37.570;2022-08-16T10:26:33;100409.22;;;30.12;26.19
37792;BME280;29527;55.766;37.570;2022-08-16T10:28:59;100417.25;;;30.25;25.26
37792;BME280;29527;55.766;37.570;2022-08-16T10:31:25;100406.47;;;30.12;25.36
37792;BME280;29527;55.766;37.570;2022-08-16T10:33:51;100403.75;;;29.81;25.96
37792;BME280;29527;55.766;37.570;2022-08-16T10:36:16;100417.94;;;29.85;25.93
37792;BME280;29527;55.766;37.570;2022-08-16T10:38:42;100404.03;;;29.91;25.99
37792;BME280;29527;55.766;37.570;2022-08-16T10:41:09;100397.75;;;29.84;25.92
37792;BME280;29527;55.766;37.570;2022-08-16T10:43:36;100400.31;;;29.98;25.81
37792;BME280;29527;55.766;37.570;2022-08-16T10:46:04;100426.00;;;30.10;25.77
37792;BME280;29527;55.766;37.570;2022-08-16T10:48:29;100407.88;;;30.14;25.85
37792;BME280;29527;55.766;37.570;2022-08-16T10:50:57;100399.75;;;30.19;25.06
37792;BME280;29527;55.766;37.570;2022-08-16T10:53:24;100401.53;;;30.38;25.59
37792;BME280;29527;55.766;37.570;2022-08-16T10:55:50;100390.47;;;30.38;25.46
37792;BME280;29527;55.766;37.570;2022-08-16T10:58:16;100385.78;;;30.38;25.24
37792;BME280;29527;55.766;37.570;2022-08-16T11:00:42;100388.28;;;30.51;25.08
37792;BME280;29527;55.766;37.570;2022-08-16T11:03:08;100397.75;;;30.68;24.82
37792;BME280;29527;55.766;37.570;2022-08-16T11:05:36;100385.00;;;30.78;25.10
37792;BME280;29527;55.766;37.570;2022-08-16T11:08:04;100372.91;;;30.97;24.93
37792;BME280;29527;55.766;37.570;2022-08-16T11:10:36;100368.41;;;31.07;24.56
37792;BME280;29527;55.766;37.570;2022-08-16T11:13:03;100392.13;;;31.03;24.80
37792;BME280;29527;55.766;37.570;2022-08-16T11:15:31;100381.25;;;30.85;24.84
37792;BME280;29527;55.766;37.570;2022-08-16T11:17:57;100352.38;;;30.51;24.83
37792;BME280;29527;55.766;37.570;2022-08-16T11:20:23;100400.88;;;30.59;25.41
37792;BME280;29527;55.766;37.570;2022-08-16T11:22:49;100386.22;;;30.59;25.15
37792;BME280;29527;55.766;37.570;2022-08-16T11:25:18;100345.78;;;30.41;25.21
37792;BME280;29527;55.766;37.570;2022-08-16T11:27:44;100371.47;;;30.65;24.95
37792;BME280;29527;55.766;37.570;2022-08-16T11:30:12;100372.41;;;30.59;25.38
37792;BME280;29527;55.766;37.570;2022-08-16T11:32:39;100362.72;;;30.44;25.00
37792;BME280;29527;55.766;37.570;2022-08-16T11:35:11;100363.53;;;30.45;25.55
37792;BME280;29527;55.766;37.570;2022-08-16T11:37:39;100361.41;;;30.35;25.52
37792;BME280;29527;55.766;37.570;2022-08-16T11:40:06;100364.75;;;30.37;25.76
37792;BME280;29527;55.766;37.570;2022-08-16T11:42:33;100363.66;;;30.38;26.28
37792;BME280;29527;55.766;37.570;2022-08-16T11:44:59;100362.72;;;30.44;25.87
37792;BME280;29527;55.766;37.570;2022-08-16T11:47:24;100358.78;;;30.40;25.80
37792;BME280;29527;55.766;37.570;2022-08-16T11:49:50;100364.16;;;30.35;26.15
37792;BME280;29527;55.766;37.570;2022-08-16T11:52:16;100350.94;;;30.37;25.82
37792;BME280;29527;55.766;37.570;2022-08-16T11:54:43;100344.97;;;30.40;25.53
37792;BME280;29527;55.766;37.570;2022-08-16T11:57:10;100362.75;;;30.32;24.63
37792;BME280;29527;55.766;37.570;2022-08-16T11:59:37;100343.16;;;30.22;25.35
37792;BME280;29527;55.766;37.570;2022-08-16T12:02:03;100332.38;;;30.20;25.30
37792;BME280;29527;55.766;37.570;2022-08-16T12:04:32;100344.59;;;30.36;25.45
37792;BME280;29527;55.766;37.570;2022-08-16T12:06:59;100342.19;;;30.40;25.21
37792;BME280;29527;55.766;37.570;2022-08-16T12:09:25;100339.44;;;30.40;25.31
37792;BME280;29527;55.766;37.570;2022-08-16T12:11:51;100336.31;;;30.36;25.61
37792;BME280;29527;55.766;37.570;2022-08-16T12:14:16;100337.09;;;30.49;25.31
37792;BME280;29527;55.766;37.570;2022-08-16T12:16:42;100331.25;;;30.45;25.55
37792;BME280;29527;55.766;37.570;2022-08-16T12:19:07;100329.91;;;30.48;25.40
37792;BME280;29527;55.766;37.570;2022-08-16T12:21:34;100298.22;;;30.39;25.52
37792;BME280;29527;55.766;37.570;2022-08-16T12:24:00;100328.94;;;30.66;25.24
37792;BME280;29527;55.766;37.570;2022-08-16T12:26:27;100346.31;;;30.78;25.06
37792;BME280;29527;55.766;37.570;2022-08-16T12:28:52;100317.44;;;30.86;24.76
37792;BME280;29527;55.766;37.570;2022-08-16T12:31:19;100314.63;;;30.98;24.42
37792;BME280;29527;55.766;37.570;2022-08-16T12:33:45;100280.19;;;30.89;24.44
37792;BME280;29527;55.766;37.570;2022-08-16T12:36:11;100326.44;;;31.11;24.89
37792;BME280;29527;55.766;37.570;2022-08-16T12:38:38;100329.97;;;31.06;24.18
37792;BME280;29527;55.766;37.570;2022-08-16T12:41:04;100313.88;;;31.03;24.59